Time;durP1;ratioP1;P1;durP2;ratioP2;P2;SDS_P1;SDS_P2;PMS_P1;PMS_P2;Temp;Humidity;BMP_temperature;BMP_pressure;BME280_temperature;BME280_humidity;BME280_pressure;Samples;Min_cycle;Max_cycle;Signal;HPM_P1;HPM_P2
2023/02/16 00:02:02;;;;;;;4.63;3.00;;;;;;;;;;5109249;28;20407;-75
2023/02/16 00:04:33;;;;;;;4.00;2.50;;;;;;;;;;5109475;28;20050;-75
2023/02/16 00:07:04;;;;;;;3.03;2.63;;;;;;;;;;5109771;28;20047;-75
2023/02/16 00:09:35;;;;;;;4.68;2.55;;;;;;;;;;5109661;28;20053;-76
2023/02/16 00:15:19;;;;;;;3.17;2.15;;;;;;;;;;5109340;28;20039;-76
2023/02/16 00:17:51;;;;;;;;;;;;;;;;;;5109874;28;20028;-74
2023/02/16 00:20:21;;;;;;;3.45;2.17;;;;;;;;;;5109108;28;19923;-75
2023/02/16 00:22:52;;;;;;;4.70;2.22;;;;;;;;;;5090229;28;20414;-77
2023/02/16 00:25:22;;;;;;;5.63;2.67;;;;;;;;;;5109517;28;20054;-76
2023/02/16 00:27:53;;;;;;;4.95;2.72;;;;;;;;;;5109205;28;20063;-76
2023/02/16 00:30:24;;;;;;;5.80;2.45;;;;;;;;;;5108695;28;20525;-76
2023/02/16 00:32:55;;;;;;;4.90;2.17;;;;;;;;;;5108929;28;20058;-78
2023/02/16 00:35:25;;;;;;;7.13;2.17;;;;;;;;;;5108405;28;20491;-78
2023/02/16 00:37:59;;;;;;;3.58;2.22;;;;;;;;;;5107713;28;20403;-76
2023/02/16 00:40:33;;;;;;;3.90;2.33;;;;;;;;;;5107743;28;20047;-76
2023/02/16 00:43:07;;;;;;;6.28;2.22;;;;;;;;;;5107726;28;20055;-76
2023/02/16 00:45:39;;;;;;;3.33;2.40;;;;;;;;;;5108508;28;20044;-76
2023/02/16 00:48:10;;;;;;;4.25;2.38;;;;;;;;;;5108288;28;20066;-75
2023/02/16 00:50:40;;;;;;;6.00;2.38;;;;;;;;;;5108321;28;20059;-76
2023/02/16 00:53:13;;;;;;;5.32;2.35;;;;;;;;;;5109806;28;20047;-76
2023/02/16 00:55:46;;;;;;;3.17;2.50;;;;;;;;;;5092198;28;20047;-75
2023/02/16 00:58:41;;;;;;;3.40;2.38;;;;;;;;;;5073173;28;20434;-74
2023/02/16 01:01:15;;;;;;;3.60;2.20;;;;;;;;;;5090842;28;20572;-75
2023/02/16 01:03:48;;;;;;;3.25;2.42;;;;;;;;;;5089444;28;20526;-75
2023/02/16 01:12:07;;;;;;;15.30;2.65;;;;;;;;;;5087935;28;20058;-76
2023/02/16 01:14:38;;;;;;;10.48;2.25;;;;;;;;;;5087414;28;20051;-75
2023/02/16 01:17:11;;;;;;;7.32;2.58;;;;;;;;;;5085441;28;20062;-77
2023/02/16 01:19:42;;;;;;;4.18;2.35;;;;;;;;;;5087331;28;20040;-77
2023/02/16 01:22:12;;;;;;;5.97;2.72;;;;;;;;;;5086623;28;20079;-76
2023/02/16 01:24:42;;;;;;;4.88;2.60;;;;;;;;;;5087412;28;20040;-74
2023/02/16 01:27:14;;;;;;;6.70;2.85;;;;;;;;;;5068672;28;20526;-77
2023/02/16 01:29:46;;;;;;;6.00;2.50;;;;;;;;;;5087477;28;20040;-77
2023/02/16 01:32:17;;;;;;;7.43;2.80;;;;;;;;;;5068495;28;20059;-75
2023/02/16 01:34:48;;;;;;;2.75;2.28;;;;;;;;;;5087617;28;20047;-77
2023/02/16 01:37:20;;;;;;;3.28;2.58;;;;;;;;;;5086015;28;20056;-76
2023/02/16 01:39:51;;;;;;;6.65;2.60;;;;;;;;;;5069624;28;20044;-78
2023/02/16 01:42:50;;;;;;;7.78;2.63;;;;;;;;;;5068632;28;20055;-78
2023/02/16 01:45:34;;;;;;;4.78;3.10;;;;;;;;;;5084812;28;20044;-79
2023/02/16 01:48:12;;;;;;;4.00;2.28;;;;;;;;;;5086696;28;20059;-76
2023/02/16 01:51:28;;;;;;;4.18;2.67;;;;;;;;;;5087498;28;20055;-78
2023/02/16 01:54:21;;;;;;;3.40;2.50;;;;;;;;;;5063607;28;20060;-76
2023/02/16 01:56:58;;;;;;;7.03;2.78;;;;;;;;;;5086942;28;20079;-78
2023/02/16 01:59:40;;;;;;;7.68;2.40;;;;;;;;;;5068384;28;20044;-75
2023/02/16 02:02:23;;;;;;;5.57;2.65;;;;;;;;;;5086908;28;20415;-78
2023/02/16 02:08:18;;;;;;;7.72;2.45;;;;;;;;;;5087015;28;19931;-75
2023/02/16 02:11:01;;;;;;;7.60;2.60;;;;;;;;;;5068188;28;20055;-78
2023/02/16 02:13:36;;;;;;;7.38;2.72;;;;;;;;;;5067787;28;20542;-77
2023/02/16 02:16:10;;;;;;;12.68;3.03;;;;;;;;;;5068411;28;20063;-76
2023/02/16 02:18:40;;;;;;;14.25;3.03;;;;;;;;;;5086693;28;20040;-78
2023/02/16 02:24:36;;;;;;;6.65;3.13;;;;;;;;;;5067611;28;20075;-76
2023/02/16 02:27:29;;;;;;;3.05;2.50;;;;;;;;;;5068502;28;20071;-76
2023/02/16 02:30:18;;;;;;;7.63;2.83;;;;;;;;;;5061594;28;20519;-77
2023/02/16 02:33:10;;;;;;;12.95;3.20;;;;;;;;;;5068248;28;20064;-74
2023/02/16 02:36:13;;;;;;;6.97;2.90;;;;;;;;;;5086528;28;20048;-76
2023/02/16 02:39:11;;;;;;;8.00;2.72;;;;;;;;;;5062929;28;20052;-75
2023/02/16 02:42:05;;;;;;;10.52;3.00;;;;;;;;;;5067735;28;20059;-77
2023/02/16 02:45:01;;;;;;;6.90;3.08;;;;;;;;;;5068161;28;20040;-78
2023/02/16 02:47:38;;;;;;;5.82;3.00;;;;;;;;;;5086533;28;20079;-76
2023/02/16 02:50:40;;;;;;;10.57;3.00;;;;;;;;;;5068080;28;20414;-76
2023/02/16 02:53:13;;;;;;;7.97;3.10;;;;;;;;;;5086845;28;20537;-75
2023/02/16 03:01:32;;;;;;;6.82;3.05;;;;;;;;;;5068290;28;20055;-74
2023/02/16 03:04:04;;;;;;;18.33;3.13;;;;;;;;;;5086537;28;20048;-78
2023/02/16 03:06:44;;;;;;;7.38;3.00;;;;;;;;;;5086421;28;20052;-75
2023/02/16 03:09:15;;;;;;;6.72;2.92;;;;;;;;;;5086267;28;20048;-73
2023/02/16 03:14:45;;;;;;;13.90;3.08;;;;;;;;;;5086616;28;20503;-76
2023/02/16 03:31:37;;;;;;;14.07;3.00;;;;;;;;;;5067480;28;20514;-75
2023/02/16 03:34:08;;;;;;;12.80;3.15;;;;;;;;;;5089009;28;20522;-77
2023/02/16 03:36:43;;;;;;;5.20;2.70;;;;;;;;;;5089653;28;20040;-77
2023/02/16 03:39:15;;;;;;;13.82;2.95;;;;;;;;;;5089903;28;20043;-75
2023/02/16 03:41:49;;;;;;;9.68;2.95;;;;;;;;;;5089627;28;20051;-77
2023/02/16 03:44:20;;;;;;;4.03;2.72;;;;;;;;;;5089699;28;20044;-77
2023/02/16 03:46:53;;;;;;;6.57;2.70;;;;;;;;;;5089317;28;20070;-76
2023/02/16 03:49:24;;;;;;;8.68;2.90;;;;;;;;;;5089508;28;20399;-76
2023/02/16 03:51:53;;;;;;;7.97;2.70;;;;;;;;;;5071576;28;20487;-77
2023/02/16 03:54:24;;;;;;;8.88;2.85;;;;;;;;;;5089053;28;20491;-77
2023/02/16 03:56:55;;;;;;;10.30;2.70;;;;;;;;;;5089037;28;20051;-78
2023/02/16 03:59:27;;;;;;;6.75;2.60;;;;;;;;;;5089319;28;20052;-76
2023/02/16 04:01:57;;;;;;;4.47;2.53;;;;;;;;;;5089537;28;20483;-74
2023/02/16 04:04:27;;;;;;;14.45;2.80;;;;;;;;;;5088966;28;20077;-78
2023/02/16 04:06:58;;;;;;;12.35;2.65;;;;;;;;;;5089514;28;20055;-75
2023/02/16 04:09:30;;;;;;;4.82;2.47;;;;;;;;;;5089056;28;20051;-76
2023/02/16 04:14:49;;;;;;;9.57;3.00;;;;;;;;;;5088724;28;20510;-76
2023/02/16 04:17:20;;;;;;;6.10;2.55;;;;;;;;;;5088587;28;20058;-75
2023/02/16 04:19:51;;;;;;;8.55;2.72;;;;;;;;;;5088704;28;20059;-75
2023/02/16 04:22:20;;;;;;;8.32;2.35;;;;;;;;;;5088903;28;20052;-76
2023/02/16 04:24:54;;;;;;;7.53;2.65;;;;;;;;;;5089047;28;20044;-74
2023/02/16 04:27:25;;;;;;;5.47;3.42;;;;;;;;;;5088534;28;20048;-75
2023/02/16 04:29:56;;;;;;;6.82;2.53;;;;;;;;;;5089002;28;20487;-75
2023/02/16 04:32:27;;;;;;;12.55;2.45;;;;;;;;;;5088743;28;20044;-76
2023/02/16 04:34:57;;;;;;;3.17;2.08;;;;;;;;;;5088700;28;20052;-77
2023/02/16 04:37:27;;;;;;;10.07;2.42;;;;;;;;;;5069789;28;20059;-75
2023/02/16 04:39:58;;;;;;;11.25;2.53;;;;;;;;;;5088514;28;20044;-77
2023/02/16 04:42:29;;;;;;;11.30;2.72;;;;;;;;;;5088552;28;20048;-76
2023/02/16 04:45:00;;;;;;;12.05;2.58;;;;;;;;;;5087590;28;20044;-75
2023/02/16 04:47:30;;;;;;;8.23;2.80;;;;;;;;;;5088030;28;20058;-76
2023/02/16 04:50:02;;;;;;;8.52;2.72;;;;;;;;;;5088776;28;20059;-78
2023/02/16 04:52:33;;;;;;;4.55;3.13;;;;;;;;;;5069441;28;20067;-77
2023/02/16 04:55:05;;;;;;;8.63;2.80;;;;;;;;;;5088045;28;20795;-75
2023/02/16 04:57:36;;;;;;;10.32;2.55;;;;;;;;;;5069810;28;20052;-77
2023/02/16 05:00:13;;;;;;;13.63;3.30;;;;;;;;;;5088236;28;20036;-75
2023/02/16 05:02:44;;;;;;;8.30;2.70;;;;;;;;;;5088391;28;20047;-76
2023/02/16 05:05:14;;;;;;;6.25;2.72;;;;;;;;;;5088296;28;20047;-77
2023/02/16 05:07:44;;;;;;;11.73;2.65;;;;;;;;;;5087597;28;20044;-77
2023/02/16 05:10:16;;;;;;;10.02;2.78;;;;;;;;;;5069250;28;20051;-77
2023/02/16 05:15:36;;;;;;;13.05;3.25;;;;;;;;;;5088276;28;20040;-75
2023/02/16 05:18:05;;;;;;;10.95;2.75;;;;;;;;;;5087672;28;20044;-76
2023/02/16 05:23:26;;;;;;;9.27;2.63;;;;;;;;;;5087827;28;20475;-75
2023/02/16 05:25:55;;;;;;;6.53;2.47;;;;;;;;;;5087818;28;20044;-74
2023/02/16 05:28:26;;;;;;;7.28;2.60;;;;;;;;;;5087622;28;20052;-75
2023/02/16 05:30:57;;;;;;;7.50;2.78;;;;;;;;;;5087268;28;20044;-78
2023/02/16 05:33:27;;;;;;;13.20;2.63;;;;;;;;;;5087725;28;20044;-77
2023/02/16 05:35:57;;;;;;;12.07;2.67;;;;;;;;;;5087778;28;20063;-75
2023/02/16 05:38:27;;;;;;;8.18;2.70;;;;;;;;;;5087814;28;20044;-75
2023/02/16 05:41:01;;;;;;;9.75;3.00;;;;;;;;;;5087271;28;20044;-78
2023/02/16 05:43:32;;;;;;;9.07;2.92;;;;;;;;;;5086446;28;20553;-78
2023/02/16 05:46:08;;;;;;;8.52;2.30;;;;;;;;;;5087382;28;20051;-74
2023/02/16 05:48:39;;;;;;;9.43;2.90;;;;;;;;;;5086914;28;20063;-74
2023/02/16 05:51:09;;;;;;;12.20;2.50;;;;;;;;;;5087005;28;20048;-74
2023/02/16 05:53:39;;;;;;;5.88;2.63;;;;;;;;;;5087287;28;20063;-77
2023/02/16 05:56:09;;;;;;;9.40;2.40;;;;;;;;;;5087008;28;20613;-76
2023/02/16 05:58:42;;;;;;;11.40;2.75;;;;;;;;;;5086851;28;20521;-76
2023/02/16 06:01:14;;;;;;;3.08;2.58;;;;;;;;;;5087516;28;20056;-74
2023/02/16 06:03:45;;;;;;;8.15;2.53;;;;;;;;;;5068262;28;20075;-75
2023/02/16 06:06:15;;;;;;;11.98;4.18;;;;;;;;;;5086805;28;20048;-75
2023/02/16 06:08:46;;;;;;;5.53;2.58;;;;;;;;;;5087249;28;20059;-76
2023/02/16 06:11:36;;;;;;;12.18;4.53;;;;;;;;;;5087148;28;20040;-77
2023/02/16 06:14:09;;;;;;;7.32;2.67;;;;;;;;;;5086889;28;20051;-77
2023/02/16 06:16:43;;;;;;;5.53;2.72;;;;;;;;;;5069236;28;20040;-77
2023/02/16 06:19:15;;;;;;;6.30;2.67;;;;;;;;;;5086427;28;20047;-77
2023/02/16 06:21:46;;;;;;;7.35;3.20;;;;;;;;;;5087069;28;20059;-75
2023/02/16 06:24:16;;;;;;;7.82;2.92;;;;;;;;;;5086390;28;20044;-77
2023/02/16 06:26:46;;;;;;;9.20;2.70;;;;;;;;;;5087003;28;20051;-78
2023/02/16 06:29:17;;;;;;;5.90;3.00;;;;;;;;;;5086939;28;20036;-75
2023/02/16 06:31:47;;;;;;;9.32;3.22;;;;;;;;;;5086433;28;20056;-76
2023/02/16 06:34:17;;;;;;;4.95;3.63;;;;;;;;;;5086863;28;20426;-75
2023/02/16 06:36:48;;;;;;;6.82;3.78;;;;;;;;;;5086634;28;20044;-77
2023/02/16 06:39:18;;;;;;;5.07;3.90;;;;;;;;;;5086435;28;20063;-76
2023/02/16 06:41:49;;;;;;;7.38;3.92;;;;;;;;;;5087358;28;20059;-77
2023/02/16 06:44:20;;;;;;;13.20;3.80;;;;;;;;;;5086161;28;20040;-76
2023/02/16 06:46:50;;;;;;;6.82;3.92;;;;;;;;;;5086526;28;20043;-78
2023/02/16 06:49:21;;;;;;;18.10;4.57;;;;;;;;;;5086751;28;20048;-75
2023/02/16 06:51:53;;;;;;;8.75;4.50;;;;;;;;;;5086585;28;20518;-75
2023/02/16 06:54:24;;;;;;;9.95;4.47;;;;;;;;;;5086713;28;20493;-77
2023/02/16 06:56:54;;;;;;;13.65;4.28;;;;;;;;;;5086453;28;20044;-77
2023/02/16 06:59:24;;;;;;;13.00;4.50;;;;;;;;;;5068635;28;20123;-77
2023/02/16 07:01:54;;;;;;;18.98;4.63;;;;;;;;;;5085440;28;20537;-77
2023/02/16 07:04:24;;;;;;;22.60;4.82;;;;;;;;;;5086425;28;20061;-76
2023/02/16 07:06:55;;;;;;;8.55;4.32;;;;;;;;;;5086335;28;20052;-77
2023/02/16 07:09:26;;;;;;;31.60;4.97;;;;;;;;;;5089841;28;20062;-77
2023/02/16 07:11:57;;;;;;;34.55;5.47;;;;;;;;;;5090311;28;20056;-75
2023/02/16 07:14:27;;;;;;;21.13;5.28;;;;;;;;;;5090215;28;20040;-76
2023/02/16 07:17:03;;;;;;;20.42;5.50;;;;;;;;;;5090000;28;20043;-78
2023/02/16 07:19:35;;;;;;;14.35;5.90;;;;;;;;;;5090429;28;20593;-78
2023/02/16 07:22:06;;;;;;;62.75;6.68;;;;;;;;;;5090095;28;20048;-76
2023/02/16 07:24:39;;;;;;;59.88;6.63;;;;;;;;;;5090230;28;20051;-75
2023/02/16 07:27:09;;;;;;;76.13;7.03;;;;;;;;;;5089785;28;20628;-80
2023/02/16 07:29:40;;;;;;;134.18;8.40;;;;;;;;;;5089592;28;20126;-78
2023/02/16 07:32:11;;;;;;;44.53;6.57;;;;;;;;;;5089337;28;20055;-76
2023/02/16 07:34:41;;;;;;;72.65;5.75;;;;;;;;;;5089816;28;20043;-80
2023/02/16 07:37:11;;;;;;;36.45;3.78;;;;;;;;;;5090456;28;20044;-79
2023/02/16 07:39:42;;;;;;;73.88;4.82;;;;;;;;;;5089882;28;20056;-78
2023/02/16 07:42:13;;;;;;;58.80;4.30;;;;;;;;;;5089712;28;20052;-78
2023/02/16 07:44:47;;;;;;;85.13;4.68;;;;;;;;;;5071162;28;20055;-79
2023/02/16 07:47:18;;;;;;;28.88;4.07;;;;;;;;;;5089713;28;20048;-76
2023/02/16 07:49:48;;;;;;;19.58;4.32;;;;;;;;;;5090011;28;20040;-77
2023/02/16 07:52:20;;;;;;;41.83;4.57;;;;;;;;;;5089515;28;20048;-77
2023/02/16 07:54:50;;;;;;;32.95;4.32;;;;;;;;;;5089117;28;20051;-78
2023/02/16 07:57:21;;;;;;;41.22;5.50;;;;;;;;;;5089484;28;20047;-78
2023/02/16 07:59:52;;;;;;;25.75;4.32;;;;;;;;;;5089278;28;20040;-77
2023/02/16 08:02:26;;;;;;;15.07;4.53;;;;;;;;;;5089747;28;20055;-78
2023/02/16 08:04:57;;;;;;;10.18;3.97;;;;;;;;;;5089111;28;20044;-77
2023/02/16 08:07:27;;;;;;;7.25;4.47;;;;;;;;;;5088345;28;20055;-78
2023/02/16 08:09:59;;;;;;;7.20;5.03;;;;;;;;;;5089374;28;20672;-77
2023/02/16 08:12:30;;;;;;;17.33;5.25;;;;;;;;;;5088699;28;20058;-76
2023/02/16 08:15:05;;;;;;;36.42;5.45;;;;;;;;;;5088924;28;20044;-79
2023/02/16 08:17:35;;;;;;;16.15;5.38;;;;;;;;;;5088923;28;20502;-77
2023/02/16 08:20:08;;;;;;;62.28;5.95;;;;;;;;;;5088693;28;20410;-77
2023/02/16 08:22:38;;;;;;;67.28;6.85;;;;;;;;;;5089175;28;20040;-79
2023/02/16 08:25:14;;;;;;;37.20;6.20;;;;;;;;;;5089025;28;21092;-78
2023/02/16 08:27:45;;;;;;;111.00;7.22;;;;;;;;;;5071191;28;20490;-77
2023/02/16 08:30:17;;;;;;;61.97;5.72;;;;;;;;;;5088477;28;20043;-78
2023/02/16 08:32:49;;;;;;;78.82;7.55;;;;;;;;;;5088650;28;20506;-76
2023/02/16 08:35:20;;;;;;;97.18;7.85;;;;;;;;;;5088692;28;20518;-78
2023/02/16 08:37:51;;;;;;;95.70;7.85;;;;;;;;;;5088467;28;20487;-81
2023/02/16 08:40:24;;;;;;;128.73;7.85;;;;;;;;;;5071285;28;20059;-77
2023/02/16 08:42:54;;;;;;;75.95;6.30;;;;;;;;;;5088670;28;20055;-78
2023/02/16 08:45:25;;;;;;;141.40;7.28;;;;;;;;;;5088223;28;20048;-79
2023/02/16 08:47:56;;;;;;;99.03;8.38;;;;;;;;;;5088037;28;20055;-79
2023/02/16 08:50:27;;;;;;;95.60;7.32;;;;;;;;;;5088331;28;20051;-82
2023/02/16 08:53:01;;;;;;;81.20;7.18;;;;;;;;;;5086675;28;20063;-81
2023/02/16 08:55:31;;;;;;;70.38;7.03;;;;;;;;;;5088474;28;20044;-80
2023/02/16 08:58:01;;;;;;;32.22;7.05;;;;;;;;;;5088256;28;20047;-77
2023/02/16 09:00:37;;;;;;;18.05;6.72;;;;;;;;;;5088062;28;20048;-78
2023/02/16 09:03:07;;;;;;;26.27;6.97;;;;;;;;;;5069223;28;20056;-78
2023/02/16 09:05:37;;;;;;;14.35;6.32;;;;;;;;;;5088735;28;20533;-79
2023/02/16 09:08:08;;;;;;;14.35;6.40;;;;;;;;;;5087808;28;20048;-77
2023/02/16 09:10:38;;;;;;;7.03;5.47;;;;;;;;;;5087843;28;20055;-79
2023/02/16 09:13:13;;;;;;;13.02;6.03;;;;;;;;;;5069016;28;20051;-77
2023/02/16 09:15:44;;;;;;;11.73;6.03;;;;;;;;;;5088173;28;20055;-78
2023/02/16 09:18:15;;;;;;;9.25;5.88;;;;;;;;;;5088006;28;20036;-78
2023/02/16 09:20:46;;;;;;;13.75;6.70;;;;;;;;;;5069007;28;20533;-76
2023/02/16 09:23:15;;;;;;;18.15;7.50;;;;;;;;;;5087892;28;20055;-78
2023/02/16 09:25:47;;;;;;;24.27;6.18;;;;;;;;;;5087755;28;20494;-78
2023/02/16 09:28:19;;;;;;;17.00;6.82;;;;;;;;;;5087940;28;20059;-77
2023/02/16 09:30:54;;;;;;;17.83;7.05;;;;;;;;;;5087343;28;20055;-80
2023/02/16 09:33:25;;;;;;;16.70;6.85;;;;;;;;;;5088347;28;20047;-80
2023/02/16 09:35:55;;;;;;;20.55;6.93;;;;;;;;;;5088051;28;20048;-76
2023/02/16 09:38:26;;;;;;;18.48;8.50;;;;;;;;;;5070085;28;20059;-76
2023/02/16 09:40:56;;;;;;;22.45;8.43;;;;;;;;;;5087714;28;20606;-77
2023/02/16 09:43:50;;;;;;;23.50;8.30;;;;;;;;;;5087577;28;20044;-78
2023/02/16 09:46:23;;;;;;;26.63;8.90;;;;;;;;;;5087991;28;20047;-80
2023/02/16 09:48:55;;;;;;;57.88;9.20;;;;;;;;;;5086670;28;20059;-80
2023/02/16 09:51:36;;;;;;;42.17;8.65;;;;;;;;;;5086887;28;20066;-78
2023/02/16 09:54:13;;;;;;;28.88;9.25;;;;;;;;;;5087059;28;20521;-78
2023/02/16 09:56:52;;;;;;;31.00;8.00;;;;;;;;;;5068629;28;20048;-83
2023/02/16 09:59:34;;;;;;;31.25;8.48;;;;;;;;;;5086663;28;20423;-77
2023/02/16 10:02:46;;;;;;;29.77;9.43;;;;;;;;;;5086278;28;20052;-80
2023/02/16 10:05:20;;;;;;;26.77;9.32;;;;;;;;;;5023961;28;20055;-80
2023/02/16 10:08:04;;;;;;;21.38;9.05;;;;;;;;;;5086394;28;20044;-79
2023/02/16 10:10:45;;;;;;;32.55;8.73;;;;;;;;;;5068238;28;20114;-78
2023/02/16 10:13:41;;;;;;;33.00;10.32;;;;;;;;;;5086311;28;20056;-83
2023/02/16 10:16:27;;;;;;;18.75;8.50;;;;;;;;;;5086380;28;20055;-81
2023/02/16 10:19:00;;;;;;;34.20;8.77;;;;;;;;;;5086358;28;20502;-81
2023/02/16 10:21:32;;;;;;;19.52;8.88;;;;;;;;;;5086513;28;20040;-81
2023/02/16 10:24:06;;;;;;;35.55;9.30;;;;;;;;;;5089852;28;20039;-75
2023/02/16 10:26:44;;;;;;;25.58;9.32;;;;;;;;;;5106588;28;20039;-82
2023/02/16 10:29:21;;;;;;;35.53;9.65;;;;;;;;;;5106192;28;20387;-76
2023/02/16 10:32:12;;;;;;;20.08;9.20;;;;;;;;;;5106749;28;20047;-82
2023/02/16 10:35:03;;;;;;;27.83;10.05;;;;;;;;;;5106065;28;20067;-78
2023/02/16 10:37:58;;;;;;;26.13;8.65;;;;;;;;;;5106825;28;20051;-75
2023/02/16 10:40:57;;;;;;;19.45;9.82;;;;;;;;;;5106246;28;20084;-78
2023/02/16 10:43:39;;;;;;;15.40;10.25;;;;;;;;;;5106952;28;20540;-81
2023/02/16 10:46:15;;;;;;;21.77;9.07;;;;;;;;;;5110025;28;20067;-77
2023/02/16 10:48:47;;;;;;;15.53;8.67;;;;;;;;;;5030294;28;2287770;-76
2023/02/16 10:51:20;;;;;;;19.58;9.48;;;;;;;;;;5111609;28;20066;-78
2023/02/16 10:53:59;;;;;;;;;;;;;;;;;;5111910;28;20051;-78
2023/02/16 10:56:35;;;;;;;20.95;9.35;;;;;;;;;;5110727;28;20210;-77
2023/02/16 10:59:29;;;;;;;21.55;9.75;;;;;;;;;;5110984;28;20062;-80
2023/02/16 11:02:13;;;;;;;20.50;9.38;;;;;;;;;;5110855;28;20039;-79
2023/02/16 11:04:47;;;;;;;14.18;8.18;;;;;;;;;;5111174;28;20051;-81
2023/02/16 11:07:22;;;;;;;12.73;8.40;;;;;;;;;;5111188;28;20047;-78
2023/02/16 11:09:56;;;;;;;19.45;8.60;;;;;;;;;;5092452;28;20532;-80
2023/02/16 11:12:35;;;;;;;13.85;8.00;;;;;;;;;;5110562;28;20059;-79
2023/02/16 11:15:15;;;;;;;11.80;7.43;;;;;;;;;;5110550;28;20050;-77
2023/02/16 11:17:51;;;;;;;17.52;8.55;;;;;;;;;;5110335;28;20066;-77
2023/02/16 11:20:44;;;;;;;16.73;8.20;;;;;;;;;;5110470;28;20044;-78
2023/02/16 11:23:27;;;;;;;8.98;6.60;;;;;;;;;;5083341;28;20502;-83
2023/02/16 11:26:01;;;;;;;12.57;7.30;;;;;;;;;;5109967;28;20055;-80
2023/02/16 11:28:35;;;;;;;10.75;7.68;;;;;;;;;;5109700;28;20051;-78
2023/02/16 11:31:09;;;;;;;11.45;7.70;;;;;;;;;;5108684;28;20059;-76
2023/02/16 11:33:42;;;;;;;10.52;7.45;;;;;;;;;;5108679;28;20035;-78
2023/02/16 11:36:20;;;;;;;14.75;7.82;;;;;;;;;;5110383;28;20051;-78
2023/02/16 11:38:58;;;;;;;13.02;7.63;;;;;;;;;;5110406;28;20048;-80
2023/02/16 11:41:32;;;;;;;15.27;6.55;;;;;;;;;;5110110;28;20047;-81
2023/02/16 11:44:03;;;;;;;11.20;6.43;;;;;;;;;;5110727;28;20507;-77
2023/02/16 11:46:40;;;;;;;20.15;7.28;;;;;;;;;;5110292;28;20495;-76
2023/02/16 11:49:33;;;;;;;9.70;6.75;;;;;;;;;;5110264;28;20056;-76
2023/02/16 11:52:29;;;;;;;14.90;6.97;;;;;;;;;;5110097;28;20048;-78
2023/02/16 11:55:01;;;;;;;12.63;6.63;;;;;;;;;;5109794;28;20059;-79
2023/02/16 11:57:36;;;;;;;11.95;7.00;;;;;;;;;;5109591;28;20055;-81
2023/02/16 12:00:26;;;;;;;10.60;6.60;;;;;;;;;;5110891;28;20051;-77
2023/02/16 12:03:18;;;;;;;12.50;7.22;;;;;;;;;;5109934;28;20043;-78
2023/02/16 12:06:11;;;;;;;9.30;6.80;;;;;;;;;;5109616;28;20059;-79
2023/02/16 12:08:54;;;;;;;10.95;6.70;;;;;;;;;;5110114;28;20048;-75
2023/02/16 12:11:38;;;;;;;10.65;6.88;;;;;;;;;;5110258;28;20052;-81
2023/02/16 12:14:48;;;;;;;8.27;6.53;;;;;;;;;;5109386;28;20051;-76
2023/02/16 12:17:18;;;;;;;11.20;6.15;;;;;;;;;;5069474;28;20060;-80
2023/02/16 12:20:16;;;;;;;10.65;5.85;;;;;;;;;;5109586;28;20062;-80
2023/02/16 12:22:48;;;;;;;8.10;6.28;;;;;;;;;;5102966;28;20070;-79
2023/02/16 12:25:35;;;;;;;9.27;6.45;;;;;;;;;;5109480;28;20050;-76
2023/02/16 12:28:19;;;;;;;7.95;5.65;;;;;;;;;;5109771;28;20505;-80
2023/02/16 12:31:10;;;;;;;7.00;5.75;;;;;;;;;;5109388;28;20071;-77
2023/02/16 12:33:57;;;;;;;9.13;4.80;;;;;;;;;;5108989;28;20044;-75
2023/02/16 12:36:51;;;;;;;8.85;4.95;;;;;;;;;;5109195;28;20039;-78
2023/02/16 12:39:48;;;;;;;5.53;4.22;;;;;;;;;;5109416;28;20410;-78
2023/02/16 12:42:36;;;;;;;5.93;3.67;;;;;;;;;;5109474;28;20054;-80
2023/02/16 12:45:18;;;;;;;4.60;3.67;;;;;;;;;;5110332;28;20557;-79
2023/02/16 12:47:51;;;;;;;;;;;;;;;;;;5109768;28;20432;-76
2023/02/16 12:50:29;;;;;;;14.43;4.85;;;;;;;;;;5090833;28;19923;-76
2023/02/16 12:53:11;;;;;;;5.55;4.05;;;;;;;;;;5108963;28;20412;-76
2023/02/16 12:55:54;;;;;;;7.25;3.60;;;;;;;;;;5109202;28;20046;-76
2023/02/16 12:59:04;;;;;;;5.05;3.22;;;;;;;;;;5108877;28;20048;-77
2023/02/16 13:01:35;;;;;;;6.75;2.53;;;;;;;;;;5108687;28;20048;-78
2023/02/16 13:04:45;;;;;;;3.25;2.60;;;;;;;;;;5108245;28;20043;-76
2023/02/16 13:07:34;;;;;;;4.75;2.38;;;;;;;;;;5076173;28;20074;-76
2023/02/16 13:10:20;;;;;;;4.30;2.50;;;;;;;;;;5108858;28;20749;-78
2023/02/16 13:12:57;;;;;;;5.97;2.60;;;;;;;;;;5108813;28;20058;-76
2023/02/16 13:15:39;;;;;;;2.72;2.05;;;;;;;;;;5107439;28;20510;-77
2023/02/16 13:18:15;;;;;;;5.72;2.08;;;;;;;;;;5090812;28;20043;-76
2023/02/16 13:20:52;;;;;;;4.55;2.38;;;;;;;;;;5107975;28;20048;-80
2023/02/16 13:23:56;;;;;;;2.17;1.73;;;;;;;;;;5108785;28;20043;-77
2023/02/16 13:26:53;;;;;;;2.38;1.92;;;;;;;;;;5111355;28;20502;-78
2023/02/16 13:29:47;;;;;;;5.50;2.00;;;;;;;;;;5110055;28;20050;-77
2023/02/16 13:32:27;;;;;;;3.53;2.15;;;;;;;;;;5107931;28;20070;-76
2023/02/16 13:35:08;;;;;;;6.15;2.28;;;;;;;;;;5109013;28;20059;-76
2023/02/16 13:38:06;;;;;;;2.30;1.63;;;;;;;;;;5108463;28;20055;-81
2023/02/16 13:41:09;;;;;;;2.67;1.70;;;;;;;;;;5108352;28;20387;-77
2023/02/16 13:43:50;;;;;;;3.70;2.40;;;;;;;;;;5082471;28;20063;-78
2023/02/16 13:46:30;;;;;;;3.92;1.70;;;;;;;;;;5107585;28;20481;-77
2023/02/16 13:49:01;;;;;;;3.10;2.40;;;;;;;;;;5108167;28;20043;-76
2023/02/16 13:51:46;;;;;;;3.63;1.75;;;;;;;;;;5107779;28;20051;-77
2023/02/16 13:54:27;;;;;;;2.85;2.05;;;;;;;;;;5107243;28;20047;-76
2023/02/16 13:57:03;;;;;;;4.30;1.67;;;;;;;;;;5107532;28;20047;-79
2023/02/16 13:59:38;;;;;;;2.20;1.80;;;;;;;;;;5107567;28;20043;-80
2023/02/16 14:02:11;;;;;;;;;;;;;;;;;;5108124;28;20059;-79
2023/02/16 14:04:50;;;;;;;2.40;1.60;;;;;;;;;;5108953;28;20294;-78
2023/02/16 14:07:31;;;;;;;3.35;1.60;;;;;;;;;;5108277;28;20051;-80
2023/02/16 14:10:01;;;;;;;2.00;1.80;;;;;;;;;;5107127;28;20046;-78
2023/02/16 14:12:38;;;;;;;5.20;2.00;;;;;;;;;;5107395;28;20043;-79
2023/02/16 14:15:19;;;;;;;2.13;1.63;;;;;;;;;;5108110;28;20058;-77
2023/02/16 14:17:50;;;;;;;2.75;1.73;;;;;;;;;;5107279;28;20043;-80
2023/02/16 14:20:22;;;;;;;2.42;1.77;;;;;;;;;;5107545;28;20047;-81
2023/02/16 14:22:58;;;;;;;2.95;1.85;;;;;;;;;;5106717;28;20062;-78
2023/02/16 14:25:34;;;;;;;3.38;1.50;;;;;;;;;;5107257;28;20410;-76
2023/02/16 14:28:34;;;;;;;2.47;1.60;;;;;;;;;;5107306;28;20043;-79
2023/02/16 14:31:21;;;;;;;8.38;2.00;;;;;;;;;;5089551;28;20514;-81
2023/02/16 14:34:13;;;;;;;4.05;1.77;;;;;;;;;;5107078;28;20066;-79
2023/02/16 14:37:26;;;;;;;7.78;1.80;;;;;;;;;;5107345;28;20506;-78
2023/02/16 14:40:42;;;;;;;1.75;1.48;;;;;;;;;;5107062;28;20066;-77
2023/02/16 14:43:41;;;;;;;1.90;1.60;;;;;;;;;;5087667;28;20438;-76
2023/02/16 14:46:36;;;;;;;12.82;2.28;;;;;;;;;;5107090;28;20043;-79
2023/02/16 14:49:28;;;;;;;10.30;2.08;;;;;;;;;;5088185;28;20059;-81
2023/02/16 14:52:36;;;;;;;3.50;1.42;;;;;;;;;;5106764;28;20052;-77
2023/02/16 14:55:32;;;;;;;2.42;1.48;;;;;;;;;;5107834;28;20166;-77
2023/02/16 14:58:23;;;;;;;3.92;1.83;;;;;;;;;;5106945;28;20054;-79
2023/02/16 15:01:10;;;;;;;3.20;1.30;;;;;;;;;;5106797;28;20051;-75
2023/02/16 15:03:46;;;;;;;2.58;1.27;;;;;;;;;;5107278;28;20506;-77
2023/02/16 15:06:20;;;;;;;3.55;1.52;;;;;;;;;;5106573;28;20052;-80
2023/02/16 15:08:57;;;;;;;2.15;1.48;;;;;;;;;;5106453;28;20062;-76
2023/02/16 15:14:53;;;;;;;2.63;1.42;;;;;;;;;;5106434;28;20050;-78
2023/02/16 15:17:43;;;;;;;4.43;1.38;;;;;;;;;;5107163;28;20036;-75
2023/02/16 15:20:37;;;;;;;2.22;1.35;;;;;;;;;;5106913;28;20043;-77
2023/02/16 15:23:20;;;;;;;2.97;1.60;;;;;;;;;;5087968;28;20047;-79
2023/02/16 15:25:59;;;;;;;2.17;1.42;;;;;;;;;;5106477;28;20059;-79
2023/02/16 15:28:35;;;;;;;3.63;1.70;;;;;;;;;;5107337;28;20506;-77
2023/02/16 15:31:16;;;;;;;6.32;1.60;;;;;;;;;;5109226;28;20047;-77
2023/02/16 15:33:59;;;;;;;2.10;1.60;;;;;;;;;;5110040;28;20051;-79
2023/02/16 15:36:41;;;;;;;1.52;1.42;;;;;;;;;;5109786;28;20506;-75
2023/02/16 15:39:24;;;;;;;3.78;1.30;;;;;;;;;;5110506;28;21256;-77
2023/02/16 15:42:23;;;;;;;1.65;1.30;;;;;;;;;;5110899;28;20069;-79
2023/02/16 15:44:55;;;;;;;3.28;1.50;;;;;;;;;;5110104;28;20044;-75
2023/02/16 15:47:26;;;;;;;2.70;1.40;;;;;;;;;;5108595;28;20090;-75
2023/02/16 15:50:10;;;;;;;1.48;1.30;;;;;;;;;;5090579;28;20051;-73
2023/02/16 15:52:41;;;;;;;1.38;1.27;;;;;;;;;;5110252;28;20052;-75
2023/02/16 15:55:12;;;;;;;2.08;1.35;;;;;;;;;;5109973;28;20054;-75
2023/02/16 15:57:44;;;;;;;2.13;1.40;;;;;;;;;;5109669;28;20054;-75
2023/02/16 16:00:18;;;;;;;2.63;1.55;;;;;;;;;;5109349;28;20048;-74
2023/02/16 16:02:52;;;;;;;2.10;1.20;;;;;;;;;;5109661;28;20058;-75
2023/02/16 16:05:34;;;;;;;2.90;1.70;;;;;;;;;;5110015;28;20066;-76
2023/02/16 16:08:13;;;;;;;3.88;1.17;;;;;;;;;;5090872;28;20060;-77
2023/02/16 16:10:45;;;;;;;3.30;1.73;;;;;;;;;;5109897;28;20044;-76
2023/02/16 16:13:28;;;;;;;3.35;1.40;;;;;;;;;;5109657;28;20493;-75
2023/02/16 16:16:05;;;;;;;4.43;1.63;;;;;;;;;;5075004;28;20070;-76
2023/02/16 16:18:44;;;;;;;3.25;1.45;;;;;;;;;;5109605;28;20051;-73
2023/02/16 16:21:21;;;;;;;5.43;1.40;;;;;;;;;;5109518;28;20054;-75
2023/02/16 16:24:06;;;;;;;1.92;1.40;;;;;;;;;;5109330;28;20043;-75
2023/02/16 16:26:55;;;;;;;1.90;1.05;;;;;;;;;;5109546;28;20050;-73
2023/02/16 16:29:52;;;;;;;1.80;1.48;;;;;;;;;;5109669;28;20051;-78